^^
Datos históricos de la estación: Murcia-Puente Tocinos
Diario Informe para Noviembre 14, 2019 Unidades:  Métrico    Ingés   Ambas
Diario Semanal Mensual Anual
  Máxima: Mínima: Promedio:
Temperatura: 17.9 °C 10.4 °C 13.5 °C
Punto de rocio: 10.7 °C 1.9 °C 6.4 °C
Humedad: 82% 41% 64%
Velocidad viento: 30.9km/h 0km/h 9.2km/h
Racha viento: 61.8km/h - -
Viento- - SSO
Presión: 1009.9 hPa 999.3 hPa -
Precipitación: 2.6 mm    
 
 
Tabla de datos para Noviembre 14, 2019
Hora Temperatura Punto de rocio Presión Viento Velocidad viento Racha viento Humedad Intensidad lluvia(por hora) Nubes
00:04 15.5 °C 8.7 °C 1009.9 hPa NO 1.9 km/h 8 km/h 64% 0.0 mm
00:09 15.3 °C 8.7 °C 1009.9 hPa NNO 2.9 km/h 7.6 km/h 64.7% 0.0 mm
00:14 15.3 °C 9.1 °C 1009.8 hPa NE 2.9 km/h 9.7 km/h 66.5% 0.0 mm
00:19 15.3 °C 9.6 °C 1009.8 hPa NE 2.9 km/h 10 km/h 68.9% 0.0 mm
00:24 15.2 °C 10 °C 1009.9 hPa NNE 4.7 km/h 9.7 km/h 71% 0.0 mm
00:29 15.2 °C 10.3 °C 1009.9 hPa NNO 5.8 km/h 8.4 km/h 72.9% 0.0 mm
00:34 15.1 °C 10.4 °C 1009.9 hPa NNO 4.6 km/h 8.4 km/h 73.7% 0.0 mm
00:39 14.9 °C 10.3 °C 1009.9 hPa NNO 3.9 km/h 8 km/h 74% 0.0 mm
00:44 14.7 °C 10.1 °C 1009.7 hPa NNO 3.9 km/h 8 km/h 74% 0.0 mm
00:49 14.5 °C 9.9 °C 1009.7 hPa NNE 3.9 km/h 8 km/h 74% 0.0 mm
00:54 14.3 °C 9.9 °C 1009.7 hPa ONO 3.9 km/h 8 km/h 74.4% 0.0 mm
00:59 14.3 °C 10 °C 1009.5 hPa Oeste 3.9 km/h 4.8 km/h 75.2% 0.0 mm
01:04 14.3 °C 10.3 °C 1009.5 hPa Oeste 1.3 km/h 3.2 km/h 76.7% 0.0 mm
01:09 14.3 °C 10.3 °C 1009.5 hPa Calm   3.9 km/h 76.7% 0.0 mm
01:14 14.2 °C 10.2 °C 1009.3 hPa Calm   3.7 km/h 76.8% 0.0 mm
01:19 14.2 °C 10.4 °C 1009.3 hPa Calm   5 km/h 77.8% 0.0 mm
01:24 14.2 °C 10.4 °C 1009.3 hPa Calm   5.6 km/h 78% 0.0 mm
01:29 14.2 °C 10.5 °C 1009.1 hPa Calm   5.6 km/h 78.3% 0.0 mm
01:34 14.2 °C 10.6 °C 1009.1 hPa ONO 1.8 km/h 7.6 km/h 79% 0.0 mm
01:39 14.1 °C 10.7 °C 1009.1 hPa Oeste 2.9 km/h 9.5 km/h 79.7% 0.0 mm
01:44 14 °C 10.6 °C 1008.8 hPa Oeste 4.7 km/h 9.7 km/h 80.3% 0.0 mm
01:49 13.9 °C 10.7 °C 1008.8 hPa SSO 5.8 km/h 8 km/h 81% 0.0 mm
01:54 13.9 °C 10.7 °C 1008.8 hPa ESE 4.1 km/h 8 km/h 81% 0.0 mm
01:59 13.9 °C 10.7 °C 1008.4 hPa OSO 3.2 km/h 6.4 km/h 81.1% 0.0 mm
02:04 13.9 °C 10.6 °C 1008.4 hPa SE 3 km/h 8.4 km/h 80.8% 0.0 mm
02:09 13.8 °C 10.3 °C 1008.4 hPa SSE 2.9 km/h 9.3 km/h 79.9% 0.0 mm
02:14 13.7 °C 10 °C 1008.2 hPa Sur 4.2 km/h 9.7 km/h 79% 0.0 mm
02:19 13.6 °C 9.9 °C 1008.2 hPa SSO 5 km/h 8 km/h 78.6% 0.0 mm
02:24 13.6 °C 9.8 °C 1008.2 hPa SSO 4.3 km/h 7.4 km/h 78% 0.0 mm
02:29 13.7 °C 9.8 °C 1008.1 hPa Oeste 3.9 km/h 9.5 km/h 77.3% 0.0 mm
02:34 13.7 °C 9.7 °C 1008.1 hPa ONO 5.1 km/h 11.1 km/h 77% 0.0 mm
02:39 13.7 °C 9.7 °C 1008.1 hPa ONO 5.8 km/h 11.3 km/h 77% 0.0 mm
02:44 13.7 °C 9.7 °C 1008.1 hPa SSO 5 km/h 11.3 km/h 77% 0.0 mm
02:49 13.7 °C 9.8 °C 1008.1 hPa SE 4.7 km/h 8 km/h 77.3% 0.0 mm
02:54 13.7 °C 9.7 °C 1008.1 hPa Sur 4.7 km/h 8 km/h 77% 0.0 mm
02:59 13.7 °C 9.7 °C 1007.7 hPa SSO 4.7 km/h 8 km/h 77% 0.0 mm
03:04 13.7 °C 9.7 °C 1007.7 hPa SSO 3.5 km/h 5.8 km/h 76.7% 0.0 mm
03:09 13.7 °C 9.4 °C 1007.7 hPa SSE 2.9 km/h 9.5 km/h 75.6% 0.0 mm
03:14 13.6 °C 9.1 °C 1007.6 hPa SSE 4.2 km/h 9.7 km/h 74.2% 0.0 mm
03:19 13.5 °C 9 °C 1007.6 hPa SSE 5 km/h 9.3 km/h 74% 0.0 mm
03:24 13.4 °C 8.9 °C 1007.6 hPa SE 5.5 km/h 11.9 km/h 74% 0.0 mm
03:29 13.3 °C 8.8 °C 1007.3 hPa SSE 5.8 km/h 11.3 km/h 74.1% 0.0 mm
03:34 13.2 °C 8.9 °C 1007.3 hPa SSE 5.8 km/h 9.7 km/h 75% 0.0 mm
03:39 13.1 °C 8.8 °C 1007.3 hPa SSO 5.8 km/h 10 km/h 75.3% 0.0 mm
03:44 13.1 °C 8.9 °C 1006.8 hPa NNO 5.1 km/h 9.7 km/h 76% 0.0 mm
03:49 12.9 °C 8.9 °C 1006.8 hPa ONO 4.7 km/h 9.7 km/h 76.4% 0.0 mm
03:54 12.8 °C 9 °C 1006.8 hPa ONO 4.1 km/h 8 km/h 77.8% 0.0 mm
03:59 12.7 °C 9.2 °C 1006.4 hPa ONO 3.9 km/h 8 km/h 79% 0.0 mm
04:04 12.7 °C 9.3 °C 1006.4 hPa ONO 3.2 km/h 4.8 km/h 79.6% 0.0 mm
04:09 12.7 °C 9.3 °C 1006.4 hPa ONO 2.9 km/h 6.9 km/h 80% 0.0 mm
04:14 12.7 °C 9.3 °C 1006.1 hPa ONO 2.9 km/h 8 km/h 80% 0.0 mm
04:19 12.7 °C 9.3 °C 1006.1 hPa ONO 2.9 km/h 8 km/h 80% 0.0 mm
04:24 12.7 °C 9.3 °C 1006.1 hPa Oeste 2.5 km/h 8.4 km/h 80% 0.0 mm
04:29 12.7 °C 9.3 °C 1005.7 hPa ESE 2.2 km/h 8 km/h 79.6% 0.0 mm
04:34 12.7 °C 9.2 °C 1005.7 hPa ESE 2.9 km/h 8 km/h 79% 0.0 mm
04:39 12.7 °C 9 °C 1005.7 hPa Este 3.2 km/h 8.4 km/h 78.6% 0.0 mm
04:44 12.5 °C 8.8 °C 1005.2 hPa Este 3.6 km/h 8 km/h 78.3% 0.0 mm
04:49 12.3 °C 8.8 °C 1005.2 hPa ESE 3.9 km/h 7.6 km/h 79% 0.0 mm
04:54 12.2 °C 8.7 °C 1005.2 hPa SSE 3.9 km/h 8 km/h 79% 0.0 mm
04:59 12.2 °C 8.7 °C 1004.7 hPa SSE 3.9 km/h 8 km/h 79.2% 0.0 mm
05:04 12.2 °C 8.8 °C 1004.7 hPa SSE 4.4 km/h 8 km/h 80% 0.0 mm
05:09 12.2 °C 8.7 °C 1004.7 hPa SSE 4.7 km/h 8 km/h 79.4% 0.0 mm
05:14 12.2 °C 8.7 °C 1004.4 hPa SE 3.1 km/h 8.4 km/h 79.1% 0.0 mm
05:19 12.1 °C 8.5 °C 1004.4 hPa NO 2.2 km/h 8 km/h 79% 0.0 mm
05:24 11.8 °C 8.4 °C 1004.4 hPa NO 3.3 km/h 8 km/h 79.3% 0.0 mm
05:29 11.7 °C 8.5 °C 1004.4 hPa ONO 3.9 km/h 8 km/h 80.4% 0.0 mm
05:34 11.7 °C 8.6 °C 1004.4 hPa ONO 3.5 km/h 8 km/h 81.5% 0.0 mm
05:39 11.7 °C 8.7 °C 1004.4 hPa ONO 3.2 km/h 4.8 km/h 82% 0.0 mm
05:44 11.7 °C 8.7 °C 1004.3 hPa ONO 2.6 km/h 11.9 km/h 82% 0.0 mm
05:49 11.6 °C 8.5 °C 1004.3 hPa ESE 2.2 km/h 11.3 km/h 81.1% 0.0 mm
05:54 11.5 °C 8.3 °C 1004.3 hPa SE 4.5 km/h 9.7 km/h 81% 0.0 mm
05:59 11.4 °C 8.3 °C 1004.0 hPa SE 5.8 km/h 8 km/h 81.4% 0.0 mm
06:04 11.4 °C 8.4 °C 1004.0 hPa SO 3.9 km/h 3.7 km/h 82% 0.0 mm
06:09 11.4 °C 8.5 °C 1004.0 hPa SO 2.9 km/h 3.2 km/h 82% 0.0 mm
06:14 11.5 °C 8.6 °C 1003.8 hPa SO 1.1 km/h   82% 0.0 mm
06:19 11.7 °C 8.6 °C 1003.8 hPa Calm     81.7% 0.0 mm
06:24 11.8 °C 8.6 °C 1003.8 hPa Calm   5.8 km/h 81% 0.0 mm
06:29 11.8 °C 8.5 °C 1003.5 hPa Calm   6.4 km/h 80.1% 0.0 mm
06:34 11.7 °C 8.5 °C 1003.5 hPa Oeste 1.9 km/h 5.8 km/h 80.7% 0.0 mm
06:39 11.7 °C 8.6 °C 1003.5 hPa Oeste 2.9 km/h 6.4 km/h 81% 0.0 mm
06:44 11.7 °C 8.6 °C 1003.3 hPa Oeste 2.5 km/h 4.8 km/h 81% 0.0 mm
06:49 11.7 °C 8.6 °C 1003.3 hPa SSE 2.2 km/h 7.4 km/h 81% 0.0 mm
06:54 11.8 °C 8.5 °C 1003.3 hPa ESE 2.9 km/h 9.3 km/h 80.4% 0.0 mm
06:59 11.7 °C 8.4 °C 1003.3 hPa ESE 3.2 km/h 9.7 km/h 80% 0.0 mm
07:04 11.5 °C 8.2 °C 1003.3 hPa ESE 3.6 km/h 9.5 km/h 80% 0.0 mm
07:09 11.5 °C 8.3 °C 1003.3 hPa ESE 3.9 km/h 9.7 km/h 80.8% 0.0 mm
07:14 11.6 °C 8.3 °C 1003.2 hPa Este 5.1 km/h 8.4 km/h 80.5% 0.0 mm
07:19 11.7 °C 8.6 °C 1003.2 hPa ESE 5.8 km/h 8 km/h 80.9% 0.0 mm
07:24 12 °C 8.5 °C 1003.3 hPa ESE 5.1 km/h 8 km/h 79.6% 0.0 mm
07:29 12.2 °C 8.4 °C 1003.3 hPa SE 4.7 km/h 8 km/h 77.2% 0.0 mm
07:34 12.6 °C 8.2 °C 1003.3 hPa SSO 3.7 km/h 8.4 km/h 74.5% 0.0 mm
07:39 12.8 °C 8.2 °C 1003.3 hPa SSE 3.2 km/h 8 km/h 73.4% 0.0 mm
07:44 13 °C 8.3 °C 1003.0 hPa ESE 3.6 km/h 8 km/h 73% 0.0 mm
07:49 13 °C 8.3 °C 1003.0 hPa ESE 3.9 km/h 8 km/h 73% 0.0 mm
07:54 12.9 °C 8.1 °C 1003.0 hPa Este 3.9 km/h 6.4 km/h 72.6% 0.0 mm
07:59 12.9 °C 8 °C 1002.9 hPa North 3.9 km/h 7.4 km/h 72.1% 0.0 mm
08:04 12.9 °C 7.7 °C 1002.9 hPa NNO 3.2 km/h 8 km/h 70.5% 0.0 mm
08:09 13.2 °C 7.6 °C 1002.9 hPa North 2.9 km/h 7.6 km/h 69.3% 0.0 mm
08:14 13.1 °C 7.6 °C 1002.8 hPa NNE 4.2 km/h 8.4 km/h 69.1% 0.0 mm
08:19 13.1 °C 7.6 °C 1002.8 hPa North 5 km/h 8.4 km/h 69.1% 0.0 mm
08:24 13.2 °C 7.6 °C 1002.8 hPa North 3.9 km/h 8 km/h 68.8% 0.0 mm
08:29 13.2 °C 7.6 °C 1002.7 hPa Oeste 3.2 km/h 7.6 km/h 69% 0.0 mm
08:34 13 °C 7.6 °C 1002.7 hPa Oeste 3.6 km/h 8.4 km/h 69.4% 0.0 mm
08:39 12.9 °C 7.4 °C 1002.8 hPa Oeste 3.9 km/h 8 km/h 69.4% 0.0 mm
08:44 12.8 °C 7.5 °C 1002.8 hPa NO 3.9 km/h 8 km/h 70% 0.0 mm
08:49 12.8 °C 7.3 °C 1002.8 hPa Oeste 3.9 km/h 24.5 km/h 69.1% 0.0 mm
08:54 13.7 °C 6.2 °C 1002.8 hPa SO 4.5 km/h 24.1 km/h 60.9% 0.0 mm
08:59 15.4 °C 5.6 °C 1002.6 hPa SO 5 km/h 27.8 km/h 52.3% 0.0 mm
09:04 16.3 °C 5.3 °C 1002.6 hPa SO 11.5 km/h 28.2 km/h 48% 0.0 mm
09:09 16.8 °C 5.2 °C 1002.6 hPa SO 14.8 km/h 29.8 km/h 46.2% 0.0 mm
09:14 17.1 °C 5 °C 1002.6 hPa SSO 16.8 km/h 30.6 km/h 45% 0.0 mm
09:19 17.2 °C 5.2 °C 1002.6 hPa SSO 18 km/h 31.5 km/h 45% 0.0 mm
09:24 17.2 °C 5.1 °C 1002.6 hPa SSO 18.2 km/h 33.3 km/h 45% 0.0 mm
09:29 17.2 °C 5.2 °C 1002.6 hPa SSO 18.4 km/h 33.8 km/h 45% 0.0 mm
09:34 17.2 °C 5.2 °C 1002.6 hPa SSO 18.8 km/h 35.2 km/h 45% 0.0 mm
09:39 17.2 °C 5.4 °C 1002.6 hPa SSO 19 km/h 35.4 km/h 45.9% 0.0 mm
09:44 17.1 °C 5.4 °C 1002.5 hPa SSO 18.4 km/h 30.6 km/h 46% 0.0 mm
09:49 17.1 °C 5.4 °C 1002.5 hPa SSO 18 km/h 30.6 km/h 46% 0.0 mm
09:54 17.1 °C 5.4 °C 1002.6 hPa SSO 16.8 km/h 29.6 km/h 46% 0.0 mm
09:59 17.1 °C 5.4 °C 1002.6 hPa SSO 16.1 km/h 29.8 km/h 46% 0.0 mm
10:04 17.2 °C 5.3 °C 1002.6 hPa SSO 16.8 km/h 31.7 km/h 45.4% 0.0 mm
10:09 17.3 °C 5.2 °C 1002.8 hPa SSO 17.2 km/h 32.2 km/h 45% 0.0 mm
10:14 17.3 °C 5.2 °C 1002.8 hPa Sur 17.7 km/h 27.8 km/h 44.8% 0.0 mm
10:19 17.4 °C 5.2 °C 1002.8 hPa SSO 18 km/h 27.8 km/h 44.7% 0.0 mm
10:24 17.4 °C 5.3 °C 1002.8 hPa SSO 15.5 km/h 22.5 km/h 45% 0.0 mm
10:29 17.3 °C 5.2 °C 1002.7 hPa Sur 14 km/h 20.9 km/h 44.8% 0.0 mm
10:34 17.4 °C 5.3 °C 1002.7 hPa SSO 12.9 km/h 24.1 km/h 44.9% 0.0 mm
10:39 17.4 °C 5.3 °C 1002.9 hPa Sur 12.2 km/h 24.1 km/h 45% 0.0 mm
10:44 17.3 °C 5.2 °C 1002.9 hPa Sur 11.5 km/h 19 km/h 45% 0.0 mm
10:49 17.3 °C 5.2 °C 1002.9 hPa SSO 11.1 km/h 19.3 km/h 45% 0.0 mm
10:54 17.3 °C 5 °C 1002.9 hPa SSO 11.1 km/h 20.1 km/h 44.3% 0.0 mm
10:59 17.4 °C 5 °C 1002.9 hPa SSO 11.1 km/h 24.5 km/h 43.9% 0.0 mm
11:04 17.4 °C 4.7 °C 1002.9 hPa SSO 13 km/h 24.1 km/h 43.1% 0.0 mm
11:09 17.4 °C 4.7 °C 1002.9 hPa SSO 14 km/h 22.5 km/h 43.1% 0.0 mm
11:14 17.4 °C 4.7 °C 1002.7 hPa SSO 12.7 km/h 24.1 km/h 43% 0.0 mm
11:19 17.5 °C 4.7 °C 1002.7 hPa SSO 11.9 km/h 24.1 km/h 42.9% 0.0 mm
11:24 17.4 °C 4.7 °C 1002.7 hPa SSO 12.1 km/h 20.9 km/h 43% 0.0 mm
11:29 17.4 °C 4.7 °C 1002.5 hPa SSO 12.2 km/h 20.4 km/h 43.1% 0.0 mm
11:34 17.4 °C 4.8 °C 1002.5 hPa SSO 12.8 km/h 28.2 km/h 43.5% 0.0 mm
11:39 17.4 °C 4.7 °C 1002.5 hPa SSO 13 km/h 27.8 km/h 43% 0.0 mm
11:44 17.4 °C 4.7 °C 1002.0 hPa SSO 15.2 km/h 25.7 km/h 43% 0.0 mm
11:49 17.4 °C 4.6 °C 1002.0 hPa SSO 16.4 km/h 24.1 km/h 42.9% 0.0 mm
11:54 17.4 °C 4.4 °C 1002.0 hPa SSO 15.4 km/h 27.8 km/h 42.2% 0.0 mm
11:59 17.4 °C 4.3 °C 1001.5 hPa SSO 14.8 km/h 27.8 km/h 41.8% 0.0 mm
12:04 17.4 °C 4.1 °C 1001.5 hPa SSO 15.9 km/h 27.8 km/h 41.2% 0.0 mm
12:09 17.5 °C 4.1 °C 1001.5 hPa SSO 16.4 km/h 25.7 km/h 41% 0.0 mm
12:14 17.5 °C 4.4 °C 1001.2 hPa SSO 14.7 km/h 29.8 km/h 41.9% 0.0 mm
12:19 17.4 °C 4.3 °C 1001.2 hPa SSO 13.7 km/h 33.3 km/h 42% 0.0 mm
12:24 17.3 °C 4.4 °C 1001.2 hPa Sur 15.2 km/h 33.8 km/h 42.3% 0.0 mm
12:29 17.3 °C 4.4 °C 1000.9 hPa SSO 16.1 km/h 27.8 km/h 42.5% 0.0 mm
12:34 17.3 °C 4.2 °C 1000.9 hPa Sur 14.7 km/h 30.6 km/h 42% 0.0 mm
12:39 17.3 °C 4.3 °C 1000.9 hPa Sur 14 km/h 35.9 km/h 42% 0.0 mm
12:44 17.3 °C 4.3 °C 1000.5 hPa Sur 14.5 km/h 35.9 km/h 42% 0.0 mm
12:49 17.3 °C 4.3 °C 1000.5 hPa Sur 14.8 km/h 35.4 km/h 42% 0.0 mm
12:54 17.3 °C 4.6 °C 1000.5 hPa Sur 15.6 km/h 32.2 km/h 42.9% 0.0 mm
12:59 17.3 °C 4.6 °C 999.9 hPa Sur 16.1 km/h 24.1 km/h 43% 0.0 mm
13:04 17.3 °C 4.6 °C 999.9 hPa Sur 14 km/h 24.1 km/h 43% 0.0 mm
13:09 17.3 °C 4.6 °C 999.9 hPa SSO 13 km/h 24.1 km/h 43% 0.0 mm
13:14 17.3 °C 4.8 °C 999.7 hPa SSO 12.5 km/h 29.6 km/h 43.5% 0.0 mm
13:19 17.4 °C 4.7 °C 999.7 hPa SSO 12.2 km/h 29.6 km/h 43.1% 0.0 mm
13:24 17.5 °C 4.8 °C 999.7 hPa SSO 12.2 km/h 25.9 km/h 43% 0.0 mm
13:29 17.7 °C 4.8 °C 999.7 hPa SSO 12.2 km/h 34.3 km/h 42.8% 0.0 mm
13:34 17.8 °C 4.8 °C 999.7 hPa SO 15.9 km/h 33.8 km/h 42.5% 0.0 mm
13:39 17.8 °C 4.8 °C 999.7 hPa SO 18 km/h 28.2 km/h 42.3% 0.0 mm
13:44 17.9 °C 4.8 °C 999.4 hPa SO 15.3 km/h 33.5 km/h 42% 0.0 mm
13:49 17.9 °C 4.8 °C 999.4 hPa SO 13.7 km/h 33.8 km/h 42% 0.0 mm
13:54 17.9 °C 4.9 °C 999.4 hPa OSO 15.2 km/h 51 km/h 42.3% 0.0 mm
13:59 17 °C 4.7 °C 999.3 hPa ONO 16.1 km/h 54.2 km/h 44.2% 0.0 mm
14:04 15.7 °C 4.6 °C 999.3 hPa ONO 25.9 km/h 54.7 km/h 47.5% 0.0 mm
14:09 15.1 °C 4.7 °C 1000.6 hPa ONO 30.9 km/h 59.2 km/h 50% 0.0 mm
14:14 14.5 °C 5 °C 1000.6 hPa ONO 30.2 km/h 59.5 km/h 52.9% 0.0 mm
14:19 13.9 °C 5.1 °C 1000.6 hPa ONO 29.8 km/h 57.9 km/h 55.4% 0.0 mm
14:24 13.4 °C 5.5 °C 1001.0 hPa NO 30.3 km/h 59.4 km/h 58.8% 0.0 mm
14:29 12.8 °C 5.8 °C 1001.0 hPa ONO 30.6 km/h 59.5 km/h 62.4% 0.0 mm
14:34 12.3 °C 5.8 °C 1001.0 hPa ONO 30.8 km/h 56.3 km/h 64.6% 0.0 mm
14:39 12.1 °C 5.8 °C 1001.6 hPa ONO 30.9 km/h 56.5 km/h 65.5% 0.3 mm
14:44 11.6 °C 6 °C 1001.6 hPa ONO 30.2 km/h 61.8 km/h 68.7% 1.0 mm
14:49 11.2 °C 6.2 °C 1001.6 hPa ONO 29.8 km/h 61.2 km/h 71.6% 1.3 mm
14:54 11 °C 6.3 °C 1001.9 hPa ONO 27.1 km/h 49.9 km/h 72.8% 1.5 mm
14:59 10.8 °C 6.4 °C 1001.9 hPa Oeste 25.6 km/h 37 km/h 74% 1.5 mm
15:04 10.8 °C 6.4 °C 1001.9 hPa OSO 21.2 km/h 30.6 km/h 74.3% 1.8 mm
15:09 10.8 °C 6.7 °C 1002.6 hPa Sur 19 km/h 25.7 km/h 75.8% 2.0 mm
15:14 10.8 °C 7.1 °C 1002.6 hPa SSE 15.1 km/h 22.5 km/h 77.7% 2.0 mm
15:19 10.7 °C 7.3 °C 1002.6 hPa SSE 13 km/h 25.9 km/h 79.8% 2.3 mm
15:24 10.5 °C 7.4 °C 1002.6 hPa SE 14.2 km/h 27.4 km/h 81.1% 2.3 mm
15:29 10.4 °C 7.3 °C 1002.5 hPa Sur 14.8 km/h 27.8 km/h 80.9% 2.6 mm
15:34 10.4 °C 7.1 °C 1002.5 hPa Sur 13.6 km/h 24.1 km/h 80% 2.6 mm
15:39 10.5 °C 7.1 °C 1002.5 hPa Sur 13 km/h 22.5 km/h 79.5% 2.6 mm
15:44 10.7 °C 7.3 °C 1002.3 hPa Sur 12.3 km/h 19.3 km/h 79.7% 2.3 mm
15:49 10.7 °C 7.5 °C 1002.3 hPa SSE 11.9 km/h 20.9 km/h 80.4% 1.3 mm
15:54 10.7 °C 7.4 °C 1002.3 hPa SSE 12.1 km/h 20.9 km/h 80% 1.3 mm
15:59 10.7 °C 7.4 °C 1001.8 hPa SSE 12.2 km/h 20.9 km/h 79.8% 1.1 mm
16:04 10.7 °C 7.4 °C 1001.8 hPa Sur 12 km/h 20.9 km/h 79.8% 1.1 mm
16:09 10.7 °C 7.4 °C 1001.8 hPa SSE 11.9 km/h 20.9 km/h 79.9% 0.8 mm
16:14 10.7 °C 7.4 °C 1001.6 hPa Sur 11.4 km/h 15.6 km/h 79.9% 0.6 mm
16:19 10.7 °C 7.2 °C 1001.6 hPa Sur 11.1 km/h 16.1 km/h 79% 0.6 mm
16:24 10.7 °C 7.2 °C 1001.6 hPa SSO 10.1 km/h 14.5 km/h 79% 0.3 mm
16:29 10.8 °C 7.3 °C 1001.4 hPa Sur 9.5 km/h 14 km/h 79% 0.0 mm
16:34 10.9 °C 7.2 °C 1001.4 hPa SSE 8.8 km/h 18 km/h 77.9% 0.0 mm
16:39 11.1 °C 7.3 °C 1001.6 hPa Sur 8.4 km/h 19.3 km/h 77% 0.0 mm
16:44 11.2 °C 7.2 °C 1001.6 hPa Sur 9.4 km/h 14.5 km/h 76.1% 0.0 mm
16:49 11.3 °C 7.2 °C 1001.6 hPa SSE 10 km/h 22.2 km/h 75.9% 0.0 mm
16:54 11.4 °C 7.2 °C 1001.6 hPa SSE 10.2 km/h 22.5 km/h 75.1% 0.0 mm
16:59 11.6 °C 7 °C 1001.6 hPa SSE 10.3 km/h 18.5 km/h 73.6% 0.0 mm
17:04 11.7 °C 7 °C 1001.6 hPa Sur 10.3 km/h 19.3 km/h 72.7% 0.0 mm
17:09 11.8 °C 7 °C 1001.6 hPa Sur 10.3 km/h 14.8 km/h 72% 0.0 mm
17:14 12.1 °C 6.9 °C 1001.3 hPa SSO 8.5 km/h 13.7 km/h 70.8% 0.0 mm
17:19 12.3 °C 7 °C 1001.3 hPa Oeste 7.6 km/h 14.5 km/h 70.1% 0.0 mm
17:24 12.5 °C 7.1 °C 1001.3 hPa ONO 4.8 km/h 9.7 km/h 70% 0.0 mm
17:29 12.6 °C 7 °C 1001.2 hPa SSO 3.2 km/h 10 km/h 68.9% 0.0 mm
17:34 12.6 °C 6.8 °C 1001.2 hPa Sur 4.9 km/h 10.3 km/h 67.7% 0.0 mm
17:39 12.6 °C 7 °C 1001.2 hPa SSE 5.8 km/h 11.1 km/h 68.7% 0.0 mm
17:44 12.5 °C 7.3 °C 1001.2 hPa SE 6.5 km/h 11.3 km/h 70.4% 0.0 mm
17:49 12.3 °C 7.2 °C 1001.2 hPa SE 6.9 km/h 11.3 km/h 71.4% 0.0 mm
17:54 12 °C 7.2 °C 1001.3 hPa SE 6.6 km/h 9.7 km/h 72.2% 0.0 mm
17:59 11.9 °C 7.3 °C 1001.3 hPa SSE 6.5 km/h 10 km/h 73.2% 0.0 mm
18:04 11.8 °C 7.1 °C 1001.3 hPa SSE 6.5 km/h 11.1 km/h 73.1% 0.0 mm
18:09 11.8 °C 7.1 °C 1001.4 hPa SO 6.5 km/h 11.3 km/h 73% 0.0 mm
18:14 11.8 °C 6.9 °C 1001.4 hPa SSO 6 km/h 9.3 km/h 72.1% 0.0 mm
18:19 11.8 °C 7 °C 1001.4 hPa SSO 5.8 km/h 9.7 km/h 72.3% 0.0 mm
18:24 11.8 °C 7.1 °C 1001.5 hPa SSO 5.3 km/h 8 km/h 72.9% 0.0 mm
18:29 11.8 °C 7.1 °C 1001.5 hPa SSO 5 km/h 10 km/h 72.7% 0.0 mm
18:34 11.9 °C 7 °C 1001.5 hPa SSO 5.5 km/h 13 km/h 71.9% 0.0 mm
18:39 11.9 °C 6.8 °C 1001.5 hPa SSO 5.8 km/h 12.9 km/h 71% 0.0 mm
18:44 11.9 °C 6.4 °C 1001.5 hPa SO 6.5 km/h 14.8 km/h 69% 0.0 mm
18:49 12.1 °C 5.5 °C 1001.5 hPa OSO 6.9 km/h 17.2 km/h 64.1% 0.0 mm
18:54 12.4 °C 4.6 °C 1001.5 hPa OSO 9.1 km/h 22.5 km/h 59.1% 0.0 mm
18:59 12.8 °C 4 °C 1001.5 hPa OSO 10.3 km/h 24.1 km/h 54.9% 0.0 mm
19:04 13 °C 3.7 °C 1001.5 hPa OSO 12.6 km/h 24.1 km/h 53.1% 0.0 mm
19:09 13 °C 3.6 °C 1001.6 hPa OSO 13.7 km/h 22.5 km/h 53% 0.0 mm
19:14 12.9 °C 3.5 °C 1001.6 hPa OSO 12.5 km/h 20.4 km/h 52.8% 0.0 mm
19:19 12.9 °C 3.3 °C 1001.6 hPa OSO 11.9 km/h 20.9 km/h 52.2% 0.0 mm
19:24 12.8 °C 3.3 °C 1001.6 hPa OSO 11.4 km/h 19.3 km/h 52.4% 0.0 mm
19:29 12.7 °C 3.2 °C 1001.5 hPa OSO 11.1 km/h 19.3 km/h 52.1% 0.0 mm
19:34 12.7 °C 3.1 °C 1001.5 hPa SO 10.1 km/h 17.7 km/h 52.1% 0.0 mm
19:39 12.7 °C 3.3 °C 1001.5 hPa SO 9.5 km/h 16.7 km/h 52.8% 0.0 mm
19:44 12.6 °C 3.2 °C 1001.5 hPa OSO 10 km/h 18.3 km/h 52.8% 0.0 mm
19:49 12.6 °C 3.2 °C 1001.5 hPa OSO 10.3 km/h 19.3 km/h 52.8% 0.0 mm
19:54 12.5 °C 3.2 °C 1001.5 hPa SO 10.1 km/h 19.3 km/h 52.9% 0.0 mm
19:59 12.5 °C 3 °C 1001.5 hPa SO 10 km/h 16.7 km/h 52.4% 0.0 mm
20:04 12.5 °C 3 °C 1001.5 hPa SO 8.9 km/h 16.1 km/h 52.3% 0.0 mm
20:09 12.6 °C 3 °C 1001.5 hPa SSO 8.4 km/h 14.5 km/h 52% 0.0 mm
20:14 12.6 °C 3.3 °C 1001.4 hPa Sur 7.8 km/h 14.8 km/h 53.2% 0.0 mm
20:19 12 °C 3.6 °C 1001.4 hPa Sur 7.6 km/h 18.5 km/h 56.5% 0.0 mm
20:24 11.7 °C 3.3 °C 1001.6 hPa Sur 10.6 km/h 22.2 km/h 56.3% 0.0 mm
20:29 12 °C 3 °C 1001.6 hPa Sur 12.2 km/h 22.5 km/h 54.3% 0.0 mm
20:34 12.2 °C 3.2 °C 1001.6 hPa Sur 12.7 km/h 24.5 km/h 54% 0.0 mm
20:39 12.1 °C 3.3 °C 1001.7 hPa SSO 13 km/h 24.1 km/h 54.9% 0.0 mm
20:44 11.9 °C 3.1 °C 1001.7 hPa Sur 10.8 km/h 16.1 km/h 55% 0.0 mm
20:49 11.9 °C 3.1 °C 1001.7 hPa Sur 9.5 km/h 14.5 km/h 55% 0.0 mm
20:54 11.9 °C 3.1 °C 1001.7 hPa SO 8.8 km/h 12.9 km/h 55% 0.0 mm
20:59 11.9 °C 3.1 °C 1001.7 hPa OSO 8.4 km/h 9.7 km/h 54.9% 0.0 mm
21:04 11.9 °C 3.1 °C 1001.7 hPa SSE 5.4 km/h 8 km/h 55% 0.0 mm
21:09 11.9 °C 3.1 °C 1001.7 hPa SE 3.9 km/h 11.1 km/h 55% 0.0 mm
21:14 11.8 °C 3.1 °C 1001.4 hPa SE 5.1 km/h 11.9 km/h 55.3% 0.0 mm
21:19 11.7 °C 3.2 °C 1001.4 hPa SE 5.8 km/h 14.8 km/h 56% 0.0 mm
21:24 11.5 °C 3.1 °C 1001.4 hPa SE 7.7 km/h 14.8 km/h 56.4% 0.0 mm
21:29 11.3 °C 3.1 °C 1001.2 hPa SE 8.7 km/h 16.7 km/h 57% 0.0 mm
21:34 11.2 °C 3 °C 1001.2 hPa SSE 9.5 km/h 16.1 km/h 57.2% 0.0 mm
21:39 11.1 °C 3 °C 1001.2 hPa SSE 10 km/h 14.8 km/h 57.5% 0.0 mm
21:44 11.1 °C 3.1 °C 1001.2 hPa SSE 9.7 km/h 14.5 km/h 58% 0.0 mm
21:49 10.9 °C 3 °C 1001.2 hPa SE 9.5 km/h 15.6 km/h 58% 0.0 mm
21:54 10.9 °C 3.1 °C 1001.5 hPa SE 8.8 km/h 16.1 km/h 58.7% 0.0 mm
21:59 10.8 °C 3.1 °C 1001.5 hPa ESE 8.4 km/h 14.5 km/h 59% 0.0 mm
22:04 10.7 °C 3 °C 1001.5 hPa ESE 7.8 km/h 14.8 km/h 59% 0.0 mm
22:09 10.7 °C 3 °C 1001.8 hPa SE 7.6 km/h 14.5 km/h 58.8% 0.0 mm
22:14 10.8 °C 2.8 °C 1001.8 hPa SE 8.3 km/h 12.9 km/h 58% 0.0 mm
22:19 10.8 °C 2.8 °C 1001.8 hPa SSE 8.7 km/h 13.7 km/h 58% 0.0 mm
22:24 10.9 °C 2.7 °C 1001.8 hPa Sur 7.6 km/h 14.5 km/h 57% 0.0 mm
22:29 11.2 °C 2.6 °C 1001.8 hPa Sur 6.9 km/h 14.5 km/h 55.7% 0.0 mm
22:34 11.3 °C 2.4 °C 1001.8 hPa Sur 7.9 km/h 20.4 km/h 54.3% 0.0 mm
22:39 11.7 °C 2.4 °C 1001.8 hPa Sur 8.4 km/h 20.9 km/h 52.8% 0.0 mm
22:44 11.9 °C 2.2 °C 1001.6 hPa Sur 10.8 km/h 18.5 km/h 51.4% 0.0 mm
22:49 12.2 °C 2.1 °C 1001.6 hPa Sur 12.2 km/h 19.3 km/h 50.2% 0.0 mm
22:54 12.2 °C 2.1 °C 1001.6 hPa Sur 12.2 km/h 19.3 km/h 50% 0.0 mm
22:59 12.3 °C 2 °C 1001.6 hPa Sur 12.2 km/h 19.3 km/h 49.4% 0.0 mm
23:04 12.3 °C 1.9 °C 1001.6 hPa Sur 12 km/h 19.3 km/h 49% 0.0 mm
23:09 12.4 °C 2 °C 1001.6 hPa SSE 11.9 km/h 19.3 km/h 49% 0.0 mm
23:14 12.3 °C 2.2 °C 1001.2 hPa SSE 11.9 km/h 19.3 km/h 49.9% 0.0 mm
23:19 12.3 °C 2.2 °C 1001.2 hPa SSE 11.9 km/h 18.5 km/h 50% 0.0 mm
23:24 12.2 °C 2.1 °C 1001.2 hPa SSE 10.9 km/h 19.3 km/h 50% 0.0 mm
23:29 12.2 °C 2.3 °C 1001.1 hPa SE 10.3 km/h 16.1 km/h 51% 0.0 mm
23:34 12.1 °C 2.3 °C 1001.1 hPa Sur 10.1 km/h 19.8 km/h 51% 0.0 mm
23:39 12.2 °C 2.1 °C 1001.1 hPa Sur 10 km/h 20.9 km/h 50.2% 0.0 mm
23:44 12.3 °C 2.1 °C 1001.0 hPa SSO 10.7 km/h 20.9 km/h 50% 0.0 mm
23:49 12.3 °C 2.2 °C 1001.0 hPa Sur 11.1 km/h 18.5 km/h 50% 0.0 mm
23:54 12.3 °C 2.1 °C 1001.4 hPa Sur 9.6 km/h 19.3 km/h 49.9% 0.0 mm
23:59 12.3 °C 2.1 °C 1001.4 hPa Sur 8.7 km/h 19.3 km/h 49.7% 0.0 mm
Murcia-Puente Tocinos, España
Compliments of Weather Underground - 3 mb

La estación de MeteoMurcia.com, publica sus datos en los siguientes proyectos:

Weather Underground PWS IMURCIAP2 Meteoclimatic www.awekas.at

W3Counter
Web Analytics